sensor_id;sensor_type;location;lat;lon;timestamp;pressure;altitude;pressure_sealevel;temperature;humidity
66196;BME280;53000;45.182;5.736;2023-08-17T00:01:29;99196.22;;;27.88;39.49
66196;BME280;53000;45.182;5.736;2023-08-17T00:03:54;99190.91;;;27.91;39.88
66196;BME280;53000;45.182;5.736;2023-08-17T00:06:20;99179.50;;;27.93;39.78
66196;BME280;53000;45.182;5.736;2023-08-17T00:08:45;99176.97;;;27.97;39.78
66196;BME280;53000;45.182;5.736;2023-08-17T00:11:10;99180.59;;;27.97;39.66
66196;BME280;53000;45.182;5.736;2023-08-17T00:13:36;99180.03;;;27.95;40.19
66196;BME280;53000;45.182;5.736;2023-08-17T00:16:01;99185.88;;;27.93;39.91
66196;BME280;53000;45.182;5.736;2023-08-17T00:18:27;99185.59;;;27.95;39.69
66196;BME280;53000;45.182;5.736;2023-08-17T00:20:52;99182.28;;;27.98;40.24
66196;BME280;53000;45.182;5.736;2023-08-17T00:23:17;99173.63;;;28.00;40.55
66196;BME280;53000;45.182;5.736;2023-08-17T00:25:43;99186.69;;;27.99;39.43
66196;BME280;53000;45.182;5.736;2023-08-17T00:28:08;99177.81;;;27.97;39.14
66196;BME280;53000;45.182;5.736;2023-08-17T00:30:34;99182.81;;;27.95;39.91
66196;BME280;53000;45.182;5.736;2023-08-17T00:33:03;99182.28;;;27.93;39.80
66196;BME280;53000;45.182;5.736;2023-08-17T00:35:28;99189.25;;;27.90;39.91
66196;BME280;53000;45.182;5.736;2023-08-17T00:37:53;99173.69;;;27.89;39.22
66196;BME280;53000;45.182;5.736;2023-08-17T00:40:19;99172.84;;;27.89;40.17
66196;BME280;53000;45.182;5.736;2023-08-17T00:42:44;99184.78;;;27.84;39.28
66196;BME280;53000;45.182;5.736;2023-08-17T00:45:10;99182.59;;;27.81;40.21
66196;BME280;53000;45.182;5.736;2023-08-17T00:47:35;99184.28;;;27.77;39.88
66196;BME280;53000;45.182;5.736;2023-08-17T00:50:01;99179.28;;;27.74;40.40
66196;BME280;53000;45.182;5.736;2023-08-17T00:52:27;99180.97;;;27.70;40.23
66196;BME280;53000;45.182;5.736;2023-08-17T00:54:54;99181.56;;;27.57;40.47
66196;BME280;53000;45.182;5.736;2023-08-17T00:57:20;99175.81;;;27.38;40.55
66196;BME280;53000;45.182;5.736;2023-08-17T00:59:46;99179.47;;;27.23;40.03
66196;BME280;53000;45.182;5.736;2023-08-17T01:02:12;99185.56;;;27.09;40.96
66196;BME280;53000;45.182;5.736;2023-08-17T01:04:37;99193.34;;;27.07;41.25
66196;BME280;53000;45.182;5.736;2023-08-17T01:07:02;99189.75;;;27.07;40.57
66196;BME280;53000;45.182;5.736;2023-08-17T01:09:28;99186.41;;;27.05;41.24
66196;BME280;53000;45.182;5.736;2023-08-17T01:14:44;99182.56;;;26.96;41.78
66196;BME280;53000;45.182;5.736;2023-08-17T01:17:19;99181.19;;;26.93;41.22
66196;BME280;53000;45.182;5.736;2023-08-17T01:19:49;99186.72;;;26.93;40.73
66196;BME280;53000;45.182;5.736;2023-08-17T01:22:17;99182.81;;;26.94;40.26
66196;BME280;53000;45.182;5.736;2023-08-17T01:24:43;99190.88;;;26.96;40.55
66196;BME280;53000;45.182;5.736;2023-08-17T01:27:08;99190.88;;;27.01;40.20
66196;BME280;53000;45.182;5.736;2023-08-17T01:29:34;99188.66;;;27.03;40.65
66196;BME280;53000;45.182;5.736;2023-08-17T01:32:04;99194.47;;;27.01;40.62
66196;BME280;53000;45.182;5.736;2023-08-17T01:34:48;99193.09;;;27.04;40.08
66196;BME280;53000;45.182;5.736;2023-08-17T01:37:18;99198.91;;;27.07;39.56
66196;BME280;53000;45.182;5.736;2023-08-17T01:39:50;99198.66;;;27.04;39.89
66196;BME280;53000;45.182;5.736;2023-08-17T01:42:17;99204.78;;;27.06;39.97
66196;BME280;53000;45.182;5.736;2023-08-17T01:44:44;99203.38;;;27.08;40.14
66196;BME280;53000;45.182;5.736;2023-08-17T01:47:09;99206.69;;;27.10;40.29
66196;BME280;53000;45.182;5.736;2023-08-17T01:49:35;99200.03;;;27.11;39.55
66196;BME280;53000;45.182;5.736;2023-08-17T01:52:01;99198.63;;;27.19;40.20
66196;BME280;53000;45.182;5.736;2023-08-17T01:54:26;99204.47;;;27.23;41.42
66196;BME280;53000;45.182;5.736;2023-08-17T01:56:51;99196.69;;;27.25;41.06
66196;BME280;53000;45.182;5.736;2023-08-17T01:59:17;99189.16;;;27.20;40.98
66196;BME280;53000;45.182;5.736;2023-08-17T02:01:42;99191.94;;;27.20;40.93
66196;BME280;53000;45.182;5.736;2023-08-17T02:04:07;99203.38;;;27.24;40.42
66196;BME280;53000;45.182;5.736;2023-08-17T02:06:33;99214.75;;;27.27;40.73
66196;BME280;53000;45.182;5.736;2023-08-17T02:08:58;99201.41;;;27.29;40.03
66196;BME280;53000;45.182;5.736;2023-08-17T02:11:24;99206.41;;;27.32;40.69
66196;BME280;53000;45.182;5.736;2023-08-17T02:13:49;99201.94;;;27.37;40.13
66196;BME280;53000;45.182;5.736;2023-08-17T02:16:15;99196.38;;;27.37;40.24
66196;BME280;53000;45.182;5.736;2023-08-17T02:18:40;99203.31;;;27.39;39.69
66196;BME280;53000;45.182;5.736;2023-08-17T02:21:06;99201.38;;;27.40;39.99
66196;BME280;53000;45.182;5.736;2023-08-17T02:23:31;99193.03;;;27.40;39.03
66196;BME280;53000;45.182;5.736;2023-08-17T02:25:56;99191.94;;;27.41;39.52
66196;BME280;53000;45.182;5.736;2023-08-17T02:28:22;99198.91;;;27.38;39.21
66196;BME280;53000;45.182;5.736;2023-08-17T02:30:48;99198.63;;;27.35;40.13
66196;BME280;53000;45.182;5.736;2023-08-17T02:33:14;99193.06;;;27.35;39.97
66196;BME280;53000;45.182;5.736;2023-08-17T02:35:39;99180.84;;;27.30;39.96
66196;BME280;53000;45.182;5.736;2023-08-17T02:38:04;99183.34;;;27.32;39.43
66196;BME280;53000;45.182;5.736;2023-08-17T02:40:30;99180.56;;;27.32;39.85
66196;BME280;53000;45.182;5.736;2023-08-17T02:42:55;99186.13;;;27.32;39.78
66196;BME280;53000;45.182;5.736;2023-08-17T02:45:20;99182.22;;;27.33;40.95
66196;BME280;53000;45.182;5.736;2023-08-17T02:47:46;99177.47;;;27.33;40.41
66196;BME280;53000;45.182;5.736;2023-08-17T02:50:11;99177.47;;;27.39;39.81
66196;BME280;53000;45.182;5.736;2023-08-17T02:52:36;99175.81;;;27.43;40.37
66196;BME280;53000;45.182;5.736;2023-08-17T02:55:02;99170.50;;;27.46;40.44
66196;BME280;53000;45.182;5.736;2023-08-17T02:57:27;99176.63;;;27.43;39.93
66196;BME280;53000;45.182;5.736;2023-08-17T02:59:53;99176.09;;;27.41;39.41
66196;BME280;53000;45.182;5.736;2023-08-17T03:02:18;99184.41;;;27.41;40.27
66196;BME280;53000;45.182;5.736;2023-08-17T03:04:43;99190.56;;;27.38;40.25
66196;BME280;53000;45.182;5.736;2023-08-17T03:07:09;99181.66;;;27.31;40.49
66196;BME280;53000;45.182;5.736;2023-08-17T03:09:34;99170.28;;;27.22;40.33
66196;BME280;53000;45.182;5.736;2023-08-17T03:11:59;99184.44;;;27.16;40.48
66196;BME280;53000;45.182;5.736;2023-08-17T03:14:25;99180.56;;;27.11;40.13
66196;BME280;53000;45.182;5.736;2023-08-17T03:16:50;99181.97;;;27.09;40.04
66196;BME280;53000;45.182;5.736;2023-08-17T03:19:15;99175.31;;;27.05;40.49
66196;BME280;53000;45.182;5.736;2023-08-17T03:21:41;99181.72;;;27.00;40.10
66196;BME280;53000;45.182;5.736;2023-08-17T03:24:06;99185.88;;;26.98;40.34
66196;BME280;53000;45.182;5.736;2023-08-17T03:26:32;99196.16;;;26.92;40.16
66196;BME280;53000;45.182;5.736;2023-08-17T03:28:57;99176.44;;;26.83;41.20
66196;BME280;53000;45.182;5.736;2023-08-17T03:31:23;99183.66;;;26.79;41.39
66196;BME280;53000;45.182;5.736;2023-08-17T03:33:48;99173.69;;;26.78;41.30
66196;BME280;53000;45.182;5.736;2023-08-17T03:36:14;99177.84;;;26.81;40.99
66196;BME280;53000;45.182;5.736;2023-08-17T03:38:39;99185.34;;;26.85;41.51
66196;BME280;53000;45.182;5.736;2023-08-17T03:41:05;99187.28;;;26.85;41.30
66196;BME280;53000;45.182;5.736;2023-08-17T03:43:31;99185.06;;;26.87;41.79
66196;BME280;53000;45.182;5.736;2023-08-17T03:45:56;99188.66;;;26.87;42.26
66196;BME280;53000;45.182;5.736;2023-08-17T03:48:22;99189.50;;;26.88;41.89
66196;BME280;53000;45.182;5.736;2023-08-17T03:50:54;99190.06;;;26.90;40.80
66196;BME280;53000;45.182;5.736;2023-08-17T03:53:19;99185.03;;;26.92;41.18
66196;BME280;53000;45.182;5.736;2023-08-17T03:55:48;99188.94;;;26.96;41.51
66196;BME280;53000;45.182;5.736;2023-08-17T03:58:14;99200.88;;;27.02;41.33
66196;BME280;53000;45.182;5.736;2023-08-17T04:00:40;99203.09;;;27.05;40.87
66196;BME280;53000;45.182;5.736;2023-08-17T04:03:06;99201.44;;;27.04;41.23
66196;BME280;53000;45.182;5.736;2023-08-17T04:05:31;99210.59;;;27.04;42.25
66196;BME280;53000;45.182;5.736;2023-08-17T04:07:58;99204.47;;;27.07;42.51
66196;BME280;53000;45.182;5.736;2023-08-17T04:10:26;99209.75;;;27.09;41.80
66196;BME280;53000;45.182;5.736;2023-08-17T04:12:52;99198.63;;;27.09;43.13
66196;BME280;53000;45.182;5.736;2023-08-17T04:15:17;99203.91;;;27.05;43.60
66196;BME280;53000;45.182;5.736;2023-08-17T04:17:43;99201.44;;;26.99;43.95
66196;BME280;53000;45.182;5.736;2023-08-17T04:20:09;99201.16;;;26.95;43.65
66196;BME280;53000;45.182;5.736;2023-08-17T04:22:34;99202.28;;;26.94;43.16
66196;BME280;53000;45.182;5.736;2023-08-17T04:24:59;99208.41;;;26.91;43.12
66196;BME280;53000;45.182;5.736;2023-08-17T04:27:25;99214.50;;;26.88;43.30
66196;BME280;53000;45.182;5.736;2023-08-17T04:29:50;99212.53;;;26.88;42.32
66196;BME280;53000;45.182;5.736;2023-08-17T04:32:15;99209.78;;;26.83;42.87
66196;BME280;53000;45.182;5.736;2023-08-17T04:34:42;99208.41;;;26.81;42.71
66196;BME280;53000;45.182;5.736;2023-08-17T04:37:08;99218.38;;;26.82;42.50
66196;BME280;53000;45.182;5.736;2023-08-17T04:39:33;99228.66;;;26.81;42.90
66196;BME280;53000;45.182;5.736;2023-08-17T04:41:59;99226.72;;;26.82;42.79
66196;BME280;53000;45.182;5.736;2023-08-17T04:44:24;99228.38;;;26.83;43.11
66196;BME280;53000;45.182;5.736;2023-08-17T04:46:51;99238.38;;;26.84;43.33
66196;BME280;53000;45.182;5.736;2023-08-17T04:49:16;99236.97;;;26.86;43.35
66196;BME280;53000;45.182;5.736;2023-08-17T04:51:41;99241.16;;;26.84;43.69
66196;BME280;53000;45.182;5.736;2023-08-17T04:54:07;99261.72;;;26.83;43.44
66196;BME280;53000;45.182;5.736;2023-08-17T04:56:32;99254.22;;;26.83;43.32
66196;BME280;53000;45.182;5.736;2023-08-17T04:58:57;99262.53;;;26.83;42.99
66196;BME280;53000;45.182;5.736;2023-08-17T05:01:23;99278.63;;;26.86;42.99
66196;BME280;53000;45.182;5.736;2023-08-17T05:03:48;99269.47;;;26.86;43.07
66196;BME280;53000;45.182;5.736;2023-08-17T05:06:13;99278.38;;;26.88;43.80
66196;BME280;53000;45.182;5.736;2023-08-17T05:08:39;99292.81;;;26.85;44.28
66196;BME280;53000;45.182;5.736;2023-08-17T05:11:04;99303.94;;;26.85;44.66
66196;BME280;53000;45.182;5.736;2023-08-17T05:13:29;99312.81;;;26.87;44.46
66196;BME280;53000;45.182;5.736;2023-08-17T05:15:55;99320.84;;;26.88;44.28
66196;BME280;53000;45.182;5.736;2023-08-17T05:18:21;99321.97;;;26.87;44.22
66196;BME280;53000;45.182;5.736;2023-08-17T05:20:46;99327.25;;;26.84;43.65
66196;BME280;53000;45.182;5.736;2023-08-17T05:23:11;99336.13;;;26.86;44.37
66196;BME280;53000;45.182;5.736;2023-08-17T05:25:36;99327.25;;;26.84;43.16
66196;BME280;53000;45.182;5.736;2023-08-17T05:28:02;99323.63;;;26.83;43.75
66196;BME280;53000;45.182;5.736;2023-08-17T05:30:27;99312.78;;;26.82;43.80
66196;BME280;53000;45.182;5.736;2023-08-17T05:32:53;99305.28;;;26.77;44.51
66196;BME280;53000;45.182;5.736;2023-08-17T05:35:18;99310.56;;;26.68;45.15
66196;BME280;53000;45.182;5.736;2023-08-17T05:37:43;99304.16;;;26.58;44.49
66196;BME280;53000;45.182;5.736;2023-08-17T05:40:09;99304.97;;;26.58;45.48
66196;BME280;53000;45.182;5.736;2023-08-17T05:42:35;99313.31;;;26.58;46.79
66196;BME280;53000;45.182;5.736;2023-08-17T05:45:01;99307.75;;;26.58;47.70
66196;BME280;53000;45.182;5.736;2023-08-17T05:47:26;99314.16;;;26.59;46.64
66196;BME280;53000;45.182;5.736;2023-08-17T05:49:51;99331.66;;;26.59;46.96
66196;BME280;53000;45.182;5.736;2023-08-17T05:52:17;99330.81;;;26.59;46.93
66196;BME280;53000;45.182;5.736;2023-08-17T05:54:42;99313.59;;;26.57;45.98
66196;BME280;53000;45.182;5.736;2023-08-17T05:57:08;99311.88;;;26.56;45.70
66196;BME280;53000;45.182;5.736;2023-08-17T05:59:33;99335.75;;;26.51;46.50
66196;BME280;53000;45.182;5.736;2023-08-17T06:01:58;99351.84;;;26.49;45.78
66196;BME280;53000;45.182;5.736;2023-08-17T06:04:24;99358.22;;;26.45;45.69
66196;BME280;53000;45.182;5.736;2023-08-17T06:06:49;99349.88;;;26.45;45.92
66196;BME280;53000;45.182;5.736;2023-08-17T06:09:15;99344.91;;;26.42;46.79
66196;BME280;53000;45.182;5.736;2023-08-17T06:11:40;99332.09;;;26.41;45.84
66196;BME280;53000;45.182;5.736;2023-08-17T06:14:06;99324.34;;;26.43;45.88
66196;BME280;53000;45.182;5.736;2023-08-17T06:16:32;99325.75;;;26.45;46.20
66196;BME280;53000;45.182;5.736;2023-08-17T06:18:58;99324.09;;;26.44;46.54
66196;BME280;53000;45.182;5.736;2023-08-17T06:21:23;99322.97;;;26.40;46.20
66196;BME280;53000;45.182;5.736;2023-08-17T06:23:48;99308.50;;;26.33;46.61
66196;BME280;53000;45.182;5.736;2023-08-17T06:26:14;99318.19;;;26.30;45.87
66196;BME280;53000;45.182;5.736;2023-08-17T06:28:39;99335.66;;;26.26;46.41
66196;BME280;53000;45.182;5.736;2023-08-17T06:31:04;99340.38;;;26.25;45.94
66196;BME280;53000;45.182;5.736;2023-08-17T06:33:30;99324.56;;;26.26;46.05
66196;BME280;53000;45.182;5.736;2023-08-17T06:35:55;99322.09;;;26.29;45.42
66196;BME280;53000;45.182;5.736;2023-08-17T06:38:20;99328.78;;;26.34;45.42
66196;BME280;53000;45.182;5.736;2023-08-17T06:40:46;99328.22;;;26.37;45.67
66196;BME280;53000;45.182;5.736;2023-08-17T06:43:11;99332.09;;;26.41;45.45
66196;BME280;53000;45.182;5.736;2023-08-17T06:45:37;99324.03;;;26.39;46.65
66196;BME280;53000;45.182;5.736;2023-08-17T06:48:03;99322.13;;;26.45;45.37
66196;BME280;53000;45.182;5.736;2023-08-17T06:50:28;99322.44;;;26.53;44.69
66196;BME280;53000;45.182;5.736;2023-08-17T06:52:54;99318.03;;;26.63;44.30
66196;BME280;53000;45.182;5.736;2023-08-17T06:55:19;99326.41;;;26.73;44.45
66196;BME280;53000;45.182;5.736;2023-08-17T06:57:45;99321.69;;;26.84;43.78
66196;BME280;53000;45.182;5.736;2023-08-17T07:00:11;99321.72;;;26.94;43.32
66196;BME280;53000;45.182;5.736;2023-08-17T07:02:37;99323.38;;;27.00;43.57
66196;BME280;53000;45.182;5.736;2023-08-17T07:05:03;99328.09;;;27.10;43.14
66196;BME280;53000;45.182;5.736;2023-08-17T07:07:29;99323.41;;;27.10;42.45
66196;BME280;53000;45.182;5.736;2023-08-17T07:09:56;99316.44;;;27.13;42.94
66196;BME280;53000;45.182;5.736;2023-08-17T07:12:22;99318.13;;;27.19;41.96
66196;BME280;53000;45.182;5.736;2023-08-17T07:14:49;99323.38;;;27.21;41.35
66196;BME280;53000;45.182;5.736;2023-08-17T07:17:14;99328.41;;;27.24;41.51
66196;BME280;53000;45.182;5.736;2023-08-17T07:19:40;99311.19;;;27.32;41.48
66196;BME280;53000;45.182;5.736;2023-08-17T07:22:05;99296.72;;;27.40;41.80
66196;BME280;53000;45.182;5.736;2023-08-17T07:24:31;99293.38;;;27.43;41.45
66196;BME280;53000;45.182;5.736;2023-08-17T07:26:56;99287.81;;;27.48;41.63
66196;BME280;53000;45.182;5.736;2023-08-17T07:29:22;99290.84;;;27.52;41.18
66196;BME280;53000;45.182;5.736;2023-08-17T07:31:48;99298.91;;;27.59;41.49
66196;BME280;53000;45.182;5.736;2023-08-17T07:34:13;99287.78;;;27.64;41.61
66196;BME280;53000;45.182;5.736;2023-08-17T07:36:38;99282.47;;;27.72;42.00
66196;BME280;53000;45.182;5.736;2023-08-17T07:39:04;99287.47;;;27.86;42.08
66196;BME280;53000;45.182;5.736;2023-08-17T07:41:30;99285.22;;;27.98;42.27
66196;BME280;53000;45.182;5.736;2023-08-17T07:43:55;99280.97;;;28.11;42.25
66196;BME280;53000;45.182;5.736;2023-08-17T07:46:21;99286.16;;;28.33;40.43
66196;BME280;53000;45.182;5.736;2023-08-17T07:48:46;99282.59;;;29.06;39.83
66196;BME280;53000;45.182;5.736;2023-08-17T07:51:12;99271.91;;;30.44;38.61
66196;BME280;53000;45.182;5.736;2023-08-17T07:53:39;99277.06;;;31.73;36.44
66196;BME280;53000;45.182;5.736;2023-08-17T07:56:04;99279.19;;;32.46;35.51
66196;BME280;53000;45.182;5.736;2023-08-17T07:58:29;99281.06;;;33.23;34.37
66196;BME280;53000;45.182;5.736;2023-08-17T08:00:55;99280.69;;;34.18;33.41
66196;BME280;53000;45.182;5.736;2023-08-17T08:03:20;99279.09;;;35.22;32.63
66196;BME280;53000;45.182;5.736;2023-08-17T08:05:48;99275.38;;;36.03;30.76
66196;BME280;53000;45.182;5.736;2023-08-17T08:08:14;99274.47;;;36.71;29.58
66196;BME280;53000;45.182;5.736;2023-08-17T08:10:40;99276.31;;;36.88;28.05
66196;BME280;53000;45.182;5.736;2023-08-17T08:13:05;99286.16;;;37.24;26.33
66196;BME280;53000;45.182;5.736;2023-08-17T08:15:35;99276.88;;;37.81;27.51
66196;BME280;53000;45.182;5.736;2023-08-17T08:18:00;99287.00;;;38.07;27.37
66196;BME280;53000;45.182;5.736;2023-08-17T08:20:26;99281.81;;;38.34;26.44
66196;BME280;53000;45.182;5.736;2023-08-17T08:22:51;99273.59;;;38.81;25.91
66196;BME280;53000;45.182;5.736;2023-08-17T08:25:16;99282.19;;;39.25;25.12
66196;BME280;53000;45.182;5.736;2023-08-17T08:27:41;99277.31;;;39.26;25.24
66196;BME280;53000;45.182;5.736;2023-08-17T08:30:07;99276.03;;;38.42;25.49
66196;BME280;53000;45.182;5.736;2023-08-17T08:32:32;99272.06;;;37.49;25.91
66196;BME280;53000;45.182;5.736;2023-08-17T08:34:58;99268.97;;;36.75;26.93
66196;BME280;53000;45.182;5.736;2023-08-17T08:37:23;99265.41;;;36.15;27.34
66196;BME280;53000;45.182;5.736;2023-08-17T08:39:53;99261.78;;;35.67;28.04
66196;BME280;53000;45.182;5.736;2023-08-17T08:42:20;99253.94;;;35.26;28.05
66196;BME280;53000;45.182;5.736;2023-08-17T08:44:46;99266.38;;;34.98;29.03
66196;BME280;53000;45.182;5.736;2023-08-17T08:47:14;99262.91;;;35.01;29.18
66196;BME280;53000;45.182;5.736;2023-08-17T08:49:40;99264.47;;;35.55;28.15
66196;BME280;53000;45.182;5.736;2023-08-17T08:52:19;99263.53;;;35.89;28.29
66196;BME280;53000;45.182;5.736;2023-08-17T08:54:49;99255.34;;;35.67;28.40
66196;BME280;53000;45.182;5.736;2023-08-17T08:57:15;99258.25;;;35.32;29.03
66196;BME280;53000;45.182;5.736;2023-08-17T08:59:41;99245.16;;;35.36;29.22
66196;BME280;53000;45.182;5.736;2023-08-17T09:02:14;99254.81;;;36.03;28.72
66196;BME280;53000;45.182;5.736;2023-08-17T09:04:43;99243.91;;;36.52;27.89
66196;BME280;53000;45.182;5.736;2023-08-17T09:07:11;99238.91;;;36.79;28.17
66196;BME280;53000;45.182;5.736;2023-08-17T09:09:38;99241.34;;;37.01;28.06
66196;BME280;53000;45.182;5.736;2023-08-17T09:12:05;99237.78;;;37.25;27.98
66196;BME280;53000;45.182;5.736;2023-08-17T09:14:32;99235.91;;;37.63;27.20
66196;BME280;53000;45.182;5.736;2023-08-17T09:16:57;99235.09;;;38.12;26.73
66196;BME280;53000;45.182;5.736;2023-08-17T09:19:24;99229.38;;;38.61;25.78
66196;BME280;53000;45.182;5.736;2023-08-17T09:21:50;99233.13;;;38.65;24.77
66196;BME280;53000;45.182;5.736;2023-08-17T09:24:15;99234.44;;;38.55;24.66
66196;BME280;53000;45.182;5.736;2023-08-17T09:26:40;99231.75;;;38.22;25.90
66196;BME280;53000;45.182;5.736;2023-08-17T09:29:19;99226.94;;;37.98;24.58
66196;BME280;53000;45.182;5.736;2023-08-17T09:31:45;99226.81;;;37.57;25.78
66196;BME280;53000;45.182;5.736;2023-08-17T09:34:11;99222.81;;;37.13;26.21
66196;BME280;53000;45.182;5.736;2023-08-17T09:36:36;99228.78;;;36.78;26.63
66196;BME280;53000;45.182;5.736;2023-08-17T09:39:02;99215.03;;;36.55;26.40
66196;BME280;53000;45.182;5.736;2023-08-17T09:41:28;99215.03;;;36.76;26.87
66196;BME280;53000;45.182;5.736;2023-08-17T09:43:55;99206.44;;;37.06;26.40
66196;BME280;53000;45.182;5.736;2023-08-17T09:46:21;99210.50;;;37.30;25.82
66196;BME280;53000;45.182;5.736;2023-08-17T09:48:47;99203.78;;;37.68;24.16
66196;BME280;53000;45.182;5.736;2023-08-17T09:51:16;99202.69;;;37.97;24.41
66196;BME280;53000;45.182;5.736;2023-08-17T09:53:42;99205.06;;;38.07;24.01
66196;BME280;53000;45.182;5.736;2023-08-17T09:56:08;99192.56;;;38.20;24.68
66196;BME280;53000;45.182;5.736;2023-08-17T09:58:36;99189.47;;;38.50;23.87
66196;BME280;53000;45.182;5.736;2023-08-17T10:01:03;99195.00;;;38.75;22.93
66196;BME280;53000;45.182;5.736;2023-08-17T10:03:33;99193.66;;;38.84;22.76
66196;BME280;53000;45.182;5.736;2023-08-17T10:06:04;99182.81;;;38.86;22.77
66196;BME280;53000;45.182;5.736;2023-08-17T10:08:33;99181.13;;;38.98;22.50
66196;BME280;53000;45.182;5.736;2023-08-17T10:11:02;99170.91;;;39.25;22.48
66196;BME280;53000;45.182;5.736;2023-08-17T10:16:48;99163.75;;;39.59;22.62
66196;BME280;53000;45.182;5.736;2023-08-17T10:21:27;99155.84;;;39.53;22.14
66196;BME280;53000;45.182;5.736;2023-08-17T10:23:55;99144.97;;;39.39;21.07
66196;BME280;53000;45.182;5.736;2023-08-17T10:26:22;99140.69;;;39.29;21.21
66196;BME280;53000;45.182;5.736;2023-08-17T10:28:48;99134.94;;;39.25;22.19
66196;BME280;53000;45.182;5.736;2023-08-17T10:31:15;99140.50;;;39.22;22.07
66196;BME280;53000;45.182;5.736;2023-08-17T10:33:41;99133.84;;;39.30;21.96
66196;BME280;53000;45.182;5.736;2023-08-17T10:36:10;99126.81;;;39.24;21.79
66196;BME280;53000;45.182;5.736;2023-08-17T10:38:36;99117.50;;;39.23;21.79
66196;BME280;53000;45.182;5.736;2023-08-17T10:41:12;99115.03;;;39.22;22.27
66196;BME280;53000;45.182;5.736;2023-08-17T10:43:57;99108.91;;;39.36;21.61
66196;BME280;53000;45.182;5.736;2023-08-17T10:46:33;99113.00;;;39.54;21.29
66196;BME280;53000;45.182;5.736;2023-08-17T10:49:06;99101.66;;;39.70;22.22
66196;BME280;53000;45.182;5.736;2023-08-17T10:51:33;99089.94;;;39.88;21.39
66196;BME280;53000;45.182;5.736;2023-08-17T10:54:01;99091.53;;;40.04;20.59
66196;BME280;53000;45.182;5.736;2023-08-17T10:56:29;99088.28;;;40.25;20.96
66196;BME280;53000;45.182;5.736;2023-08-17T10:58:54;99086.75;;;40.47;20.72
66196;BME280;53000;45.182;5.736;2023-08-17T11:01:39;99076.56;;;40.66;20.63
66196;BME280;53000;45.182;5.736;2023-08-17T11:04:09;99074.03;;;40.80;19.70
66196;BME280;53000;45.182;5.736;2023-08-17T11:06:36;99071.25;;;40.84;19.77
66196;BME280;53000;45.182;5.736;2023-08-17T11:09:06;99065.31;;;40.93;19.69
66196;BME280;53000;45.182;5.736;2023-08-17T11:11:32;99063.81;;;40.99;19.86
66196;BME280;53000;45.182;5.736;2023-08-17T11:13:58;99057.03;;;41.07;20.11
66196;BME280;53000;45.182;5.736;2023-08-17T11:16:24;99050.88;;;41.24;19.83
66196;BME280;53000;45.182;5.736;2023-08-17T11:18:49;99053.19;;;41.42;19.06
66196;BME280;53000;45.182;5.736;2023-08-17T11:21:16;99055.25;;;41.45;19.55
66196;BME280;53000;45.182;5.736;2023-08-17T11:23:42;99050.22;;;41.35;18.77
66196;BME280;53000;45.182;5.736;2023-08-17T11:26:08;99042.66;;;41.19;19.32
66196;BME280;53000;45.182;5.736;2023-08-17T11:28:34;99040.28;;;41.21;18.16
66196;BME280;53000;45.182;5.736;2023-08-17T11:31:08;99039.47;;;41.21;18.87
66196;BME280;53000;45.182;5.736;2023-08-17T11:33:35;99040.38;;;41.28;19.16
66196;BME280;53000;45.182;5.736;2023-08-17T11:36:02;99032.34;;;41.34;16.91
66196;BME280;53000;45.182;5.736;2023-08-17T11:38:41;99030.31;;;41.35;17.42
66196;BME280;53000;45.182;5.736;2023-08-17T11:41:07;99026.34;;;41.39;18.14
66196;BME280;53000;45.182;5.736;2023-08-17T11:43:34;99018.09;;;41.31;17.08
66196;BME280;53000;45.182;5.736;2023-08-17T11:46:01;99023.03;;;41.11;17.23
66196;BME280;53000;45.182;5.736;2023-08-17T11:48:27;99023.13;;;40.91;17.53
66196;BME280;53000;45.182;5.736;2023-08-17T11:50:53;99015.19;;;40.77;18.06
66196;BME280;53000;45.182;5.736;2023-08-17T11:53:19;99014.03;;;40.59;16.53
66196;BME280;53000;45.182;5.736;2023-08-17T11:55:44;99006.25;;;40.33;17.62
66196;BME280;53000;45.182;5.736;2023-08-17T11:58:10;99006.25;;;40.13;17.53
66196;BME280;53000;45.182;5.736;2023-08-17T12:00:44;99010.50;;;40.03;18.48
66196;BME280;53000;45.182;5.736;2023-08-17T12:03:13;99005.06;;;39.95;17.58
66196;BME280;53000;45.182;5.736;2023-08-17T12:05:39;98998.84;;;39.89;17.70
66196;BME280;53000;45.182;5.736;2023-08-17T12:08:07;98992.38;;;39.89;18.45
66196;BME280;53000;45.182;5.736;2023-08-17T12:10:33;98995.75;;;39.94;19.15
66196;BME280;53000;45.182;5.736;2023-08-17T12:12:59;98987.75;;;40.00;18.85
66196;BME280;53000;45.182;5.736;2023-08-17T12:15:31;98988.59;;;40.00;18.70
66196;BME280;53000;45.182;5.736;2023-08-17T12:17:59;98981.94;;;39.93;19.02
66196;BME280;53000;45.182;5.736;2023-08-17T12:20:25;98980.50;;;39.83;18.09
66196;BME280;53000;45.182;5.736;2023-08-17T12:22:50;98973.78;;;39.72;18.49
66196;BME280;53000;45.182;5.736;2023-08-17T12:25:16;98974.31;;;39.58;18.28
66196;BME280;53000;45.182;5.736;2023-08-17T12:27:41;98971.38;;;39.54;18.41
66196;BME280;53000;45.182;5.736;2023-08-17T12:30:24;98963.66;;;39.51;18.89
66196;BME280;53000;45.182;5.736;2023-08-17T12:32:50;98964.16;;;39.57;18.66
66196;BME280;53000;45.182;5.736;2023-08-17T12:35:15;98953.00;;;39.64;18.60
66196;BME280;53000;45.182;5.736;2023-08-17T12:37:41;98957.22;;;39.74;18.61
66196;BME280;53000;45.182;5.736;2023-08-17T12:40:06;98956.56;;;39.80;18.98
66196;BME280;53000;45.182;5.736;2023-08-17T12:42:33;98950.84;;;39.77;18.81
66196;BME280;53000;45.182;5.736;2023-08-17T12:44:58;98952.69;;;39.69;19.03
66196;BME280;53000;45.182;5.736;2023-08-17T12:47:23;98947.56;;;39.55;19.43
66196;BME280;53000;45.182;5.736;2023-08-17T12:49:49;98940.91;;;39.47;19.39
66196;BME280;53000;45.182;5.736;2023-08-17T12:52:14;98951.34;;;39.43;19.08
66196;BME280;53000;45.182;5.736;2023-08-17T12:54:39;98933.78;;;39.38;18.15
66196;BME280;53000;45.182;5.736;2023-08-17T12:57:05;98936.75;;;39.25;18.78
66196;BME280;53000;45.182;5.736;2023-08-17T12:59:30;98928.28;;;39.10;18.59
66196;BME280;53000;45.182;5.736;2023-08-17T13:01:55;98925.22;;;38.99;18.97
66196;BME280;53000;45.182;5.736;2023-08-17T13:04:21;98922.66;;;38.94;18.59